Wetterdaten: Woche 03.06.13 - 09.06.13 (KW23)
Datum Zeit Temp. A. Feuchte A. Luftdruck Regen Wind Richtung Taupunkt Windchill Windben
03.06.2013 00:00 9,1 C 84 % 1023,6 hPa 0,0 l/m 6,2 km/h (2 Bft) NW 6,5 C 8,8 C 15,0 km/h (3 Bft)
03.06.2013 01:00 8,8 C 86 % 1023,5 hPa 0,0 l/m 7,0 km/h (2 Bft) NW 6,5 C 8,3 C 15,0 km/h (3 Bft)
03.06.2013 02:00 8,4 C 87 % 1023,6 hPa 0,0 l/m 6,1 km/h (2 Bft) N-NW 6,4 C 8,0 C 14,1 km/h (3 Bft)
03.06.2013 03:00 7,8 C 89 % 1023,8 hPa 0,0 l/m 6,1 km/h (2 Bft) N-NW 6,1 C 7,6 C 12,8 km/h (3 Bft)
03.06.2013 04:00 7,3 C 90 % 1023,8 hPa 0,0 l/m 4,3 km/h (1 Bft) NW 5,9 C 7,3 C 9,6 km/h (2 Bft)
03.06.2013 05:00 6,8 C 92 % 1024,1 hPa 0,0 l/m 2,8 km/h (1 Bft) W-NW 5,5 C 6,8 C 6,9 km/h (2 Bft)
03.06.2013 06:00 7,1 C 92 % 1024,2 hPa 0,0 l/m 3,9 km/h (1 Bft) NW 5,9 C 7,1 C 9,8 km/h (2 Bft)
03.06.2013 07:00 8,1 C 90 % 1024,3 hPa 0,0 l/m 6,3 km/h (2 Bft) W-NW 6,5 C 7,7 C 13,8 km/h (3 Bft)
03.06.2013 08:00 9,2 C 86 % 1024,5 hPa 0,0 l/m 9,5 km/h (2 Bft) NW 7,0 C 7,0 C 18,4 km/h (3 Bft)
03.06.2013 09:00 10,9 C 81 % 1024,6 hPa 0,0 l/m 10,3 km/h (2 Bft) N-NW 7,8 C 8,5 C 19,2 km/h (3 Bft)
03.06.2013 10:00 13,0 C 73 % 1024,3 hPa 0,0 l/m 10,1 km/h (2 Bft) N-NW 8,3 C 10,9 C 19,7 km/h (3 Bft)
03.06.2013 11:00 14,9 C 67 % 1024,1 hPa 0,0 l/m 8,3 km/h (2 Bft) NW 8,7 C 13,8 C 17,7 km/h (3 Bft)
03.06.2013 12:00 16,4 C 61 % 1023,9 hPa 0,0 l/m 8,4 km/h (2 Bft) NW 9,0 C 15,4 C 16,8 km/h (3 Bft)
03.06.2013 13:00 17,5 C 56 % 1023,6 hPa 0,0 l/m 11,3 km/h (2 Bft) NW 8,7 C 15,4 C 20,2 km/h (4 Bft)
03.06.2013 14:00 18,3 C 52 % 1023,2 hPa 0,0 l/m 10,4 km/h (2 Bft) N-NW 8,3 C 16,6 C 18,9 km/h (3 Bft)
03.06.2013 15:00 19,0 C 50 % 1022,8 hPa 0,0 l/m 11,3 km/h (2 Bft) N 8,4 C 17,1 C 20,9 km/h (4 Bft)
03.06.2013 16:00 19,2 C 50 % 1022,6 hPa 0,0 l/m 12,7 km/h (3 Bft) N-NO 8,4 C 16,9 C 22,8 km/h (4 Bft)
03.06.2013 17:00 18,7 C 52 % 1022,5 hPa 0,0 l/m 12,8 km/h (3 Bft) N 8,7 C 16,3 C 22,3 km/h (4 Bft)
03.06.2013 18:00 18,1 C 56 % 1022,6 hPa 0,0 l/m 10,9 km/h (2 Bft) N-NW 9,1 C 16,2 C 20,2 km/h (4 Bft)
03.06.2013 19:00 17,0 C 59 % 1022,6 hPa 0,0 l/m 8,6 km/h (2 Bft) N-NW 8,8 C 16,0 C 15,8 km/h (3 Bft)
03.06.2013 20:00 15,8 C 62 % 1022,9 hPa 0,0 l/m 7,0 km/h (2 Bft) NW 8,5 C 15,3 C 14,5 km/h (3 Bft)
03.06.2013 21:00 13,4 C 71 % 1023,3 hPa 0,0 l/m 5,8 km/h (2 Bft) NW 8,3 C 13,2 C 12,5 km/h (2 Bft)
03.06.2013 22:00 11,4 C 79 % 1023,7 hPa 0,0 l/m 5,1 km/h (1 Bft) NW 7,9 C 11,3 C 12,4 km/h (2 Bft)
03.06.2013 23:00 9,9 C 85 % 1024,1 hPa 0,0 l/m 3,0 km/h (1 Bft) N-NW 7,5 C 9,9 C 7,9 km/h (2 Bft)
04.06.2013 00:00 8,8 C 88 % 1024,1 hPa 0,0 l/m 0,5 km/h (0 Bft) N 6,9 C 8,8 C 2,7 km/h (1 Bft)
04.06.2013 01:00 8,0 C 90 % 1023,8 hPa 0,0 l/m 0,3 km/h (0 Bft) N 6,5 C 8,0 C 1,5 km/h (1 Bft)
04.06.2013 02:00 7,3 C 92 % 1023,4 hPa 0,0 l/m 0,1 km/h (0 Bft) N 6,0 C 7,3 C 0,8 km/h (0 Bft)
04.06.2013 03:00 6,8 C 93 % 1022,8 hPa 0,0 l/m 0,3 km/h (0 Bft) N 5,8 C 6,8 C 1,9 km/h (1 Bft)
04.06.2013 04:00 6,5 C 94 % 1022,3 hPa 0,0 l/m 0,0 km/h (0 Bft) N 5,6 C 6,5 C 0,0 km/h (0 Bft)
04.06.2013 05:00 6,5 C 94 % 1022,0 hPa 0,0 l/m 0,0 km/h (0 Bft) N 5,6 C 6,5 C 0,0 km/h (0 Bft)
04.06.2013 06:00 6,5 C 94 % 1022,1 hPa 0,0 l/m 0,0 km/h (0 Bft) N 5,6 C 6,5 C 0,0 km/h (0 Bft)
04.06.2013 07:00 6,9 C 94 % 1021,7 hPa 0,0 l/m 0,3 km/h (0 Bft) SW 5,9 C 6,9 C 0,7 km/h (0 Bft)
04.06.2013 08:00 12,8 C 84 % 1021,6 hPa 0,0 l/m 3,4 km/h (1 Bft) NW 10,3 C 12,8 C 7,1 km/h (2 Bft)
04.06.2013 09:00 15,2 C 78 % 1021,3 hPa 0,0 l/m 5,5 km/h (2 Bft) NW 11,4 C 15,0 C 11,5 km/h (2 Bft)
04.06.2013 10:00 17,0 C 74 % 1021,2 hPa 0,0 l/m 7,5 km/h (2 Bft) N-NW 12,4 C 16,4 C 13,7 km/h (3 Bft)
04.06.2013 11:00 18,4 C 72 % 1020,9 hPa 0,0 l/m 8,3 km/h (2 Bft) NW 13,3 C 17,5 C 16,2 km/h (3 Bft)
04.06.2013 12:00 19,2 C 69 % 1020,7 hPa 0,0 l/m 7,3 km/h (2 Bft) NO 13,4 C 18,5 C 11,3 km/h (2 Bft)
04.06.2013 13:00 20,2 C 66 % 1020,3 hPa 0,0 l/m 10,5 km/h (2 Bft) N-NO 13,6 C 18,7 C 16,4 km/h (3 Bft)
04.06.2013 14:00 20,6 C 62 % 1020,0 hPa 0,0 l/m 10,3 km/h (2 Bft) NO 13,0 C 19,2 C 18,2 km/h (3 Bft)
04.06.2013 15:00 20,5 C 62 % 1019,9 hPa 0,0 l/m 8,2 km/h (2 Bft) N-NO 13,0 C 19,8 C 15,7 km/h (3 Bft)
04.06.2013 16:00 20,0 C 68 % 1019,9 hPa 0,0 l/m 8,5 km/h (2 Bft) NO 14,0 C 19,1 C 16,8 km/h (3 Bft)
04.06.2013 17:00 20,0 C 67 % 1019,8 hPa 0,0 l/m 8,2 km/h (2 Bft) NO 13,8 C 19,2 C 15,6 km/h (3 Bft)
04.06.2013 18:00 19,6 C 66 % 1019,6 hPa 0,0 l/m 7,4 km/h (2 Bft) O-NO 13,0 C 19,0 C 14,4 km/h (3 Bft)
04.06.2013 19:00 18,1 C 71 % 1019,8 hPa 0,0 l/m 4,8 km/h (1 Bft) O-NO 12,7 C 18,0 C 10,6 km/h (2 Bft)
04.06.2013 20:00 17,5 C 72 % 1020,0 hPa 0,0 l/m 3,7 km/h (1 Bft) O 12,3 C 17,5 C 5,1 km/h (1 Bft)
04.06.2013 21:00 17,4 C 72 % 1020,5 hPa 0,0 l/m 4,8 km/h (1 Bft) O 12,3 C 17,4 C 4,8 km/h (1 Bft)
04.06.2013 22:00 15,0 C 81 % 1021,0 hPa 0,0 l/m 1,5 km/h (1 Bft) NO 11,7 C 15,0 C 3,0 km/h (1 Bft)
04.06.2013 23:00 12,3 C 88 % 1021,3 hPa 0,0 l/m 1,9 km/h (1 Bft) N-NO 10,4 C 12,3 C 3,5 km/h (1 Bft)
05.06.2013 00:00 10,7 C 90 % 1021,2 hPa 0,0 l/m 0,6 km/h (0 Bft) N-NW 9,1 C 10,7 C 1,2 km/h (1 Bft)
05.06.2013 01:00 9,7 C 91 % 1021,2 hPa 0,0 l/m 0,0 km/h (0 Bft) N 8,4 C 9,7 C 0,0 km/h (0 Bft)
05.06.2013 02:00 8,7 C 93 % 1021,1 hPa 0,0 l/m 0,0 km/h (0 Bft) N 7,6 C 8,7 C 0,0 km/h (0 Bft)
05.06.2013 03:00 7,3 C 94 % 1020,9 hPa 0,0 l/m 0,0 km/h (0 Bft) N 6,4 C 7,3 C 0,0 km/h (0 Bft)
05.06.2013 04:00 6,5 C 95 % 1020,9 hPa 0,0 l/m 0,0 km/h (0 Bft) N 5,7 C 6,5 C 0,0 km/h (0 Bft)
05.06.2013 05:00 6,3 C 96 % 1021,0 hPa 0,0 l/m 0,0 km/h (0 Bft) N 5,7 C 6,3 C 0,0 km/h (0 Bft)
05.06.2013 06:00 8,8 C 96 % 1021,2 hPa 0,0 l/m 0,0 km/h (0 Bft) N 8,2 C 8,8 C 0,0 km/h (0 Bft)
05.06.2013 07:00 12,1 C 88 % 1021,5 hPa 0,0 l/m 1,0 km/h (0 Bft) O-SO 10,2 C 12,1 C 2,4 km/h (1 Bft)
05.06.2013 08:00 15,0 C 69 % 1021,6 hPa 0,0 l/m 3,0 km/h (1 Bft) O-SO 9,4 C 15,0 C 7,2 km/h (2 Bft)
05.06.2013 09:00 16,8 C 56 % 1021,7 hPa 0,0 l/m 3,8 km/h (1 Bft) O 8,0 C 16,8 C 8,7 km/h (2 Bft)
05.06.2013 10:00 17,4 C 55 % 1021,5 hPa 0,0 l/m 3,5 km/h (1 Bft) O-SO 8,1 C 17,4 C 4,0 km/h (1 Bft)
05.06.2013 11:00 18,5 C 47 % 1021,2 hPa 0,0 l/m 4,4 km/h (1 Bft) O 7,0 C 18,5 C 9,9 km/h (2 Bft)
05.06.2013 12:00 19,6 C 47 % 1021,0 hPa 0,0 l/m 4,3 km/h (1 Bft) O-SO 7,8 C 19,6 C 10,8 km/h (2 Bft)
05.06.2013 13:00 19,9 C 46 % 1020,8 hPa 0,0 l/m 4,7 km/h (1 Bft) O 7,9 C 19,9 C 11,4 km/h (2 Bft)
05.06.2013 14:00 20,7 C 46 % 1020,4 hPa 0,0 l/m 3,9 km/h (1 Bft) S-SO 8,5 C 20,7 C 10,2 km/h (2 Bft)
05.06.2013 15:00 21,4 C 44 % 1020,0 hPa 0,0 l/m 4,4 km/h (1 Bft) O 8,4 C 21,4 C 10,6 km/h (2 Bft)
05.06.2013 16:00 21,6 C 41 % 1019,8 hPa 0,0 l/m 5,1 km/h (1 Bft) O-SO 7,9 C 21,6 C 11,4 km/h (2 Bft)
05.06.2013 17:00 22,0 C 39 % 1019,6 hPa 0,0 l/m 3,7 km/h (1 Bft) O 7,4 C 22,0 C 10,9 km/h (2 Bft)
05.06.2013 18:00 22,0 C 36 % 1019,6 hPa 0,0 l/m 3,6 km/h (1 Bft) O-SO 6,3 C 22,0 C 5,6 km/h (2 Bft)
05.06.2013 19:00 21,2 C 41 % 1019,6 hPa 0,0 l/m 2,5 km/h (1 Bft) O 7,5 C 21,2 C 6,3 km/h (2 Bft)
05.06.2013 20:00 19,4 C 48 % 1019,7 hPa 0,0 l/m 2,5 km/h (1 Bft) O 8,1 C 19,4 C 6,8 km/h (2 Bft)
05.06.2013 21:00 16,4 C 59 % 1019,9 hPa 0,0 l/m 0,4 km/h (0 Bft) O-SO 8,4 C 16,4 C 1,9 km/h (1 Bft)
05.06.2013 22:00 12,4 C 77 % 1020,5 hPa 0,0 l/m 0,0 km/h (0 Bft) N 8,5 C 12,4 C 0,0 km/h (0 Bft)
05.06.2013 23:00 9,9 C 87 % 1020,9 hPa 0,0 l/m 0,0 km/h (0 Bft) N 7,9 C 9,9 C 0,0 km/h (0 Bft)
06.06.2013 00:00 8,4 C 92 % 1021,1 hPa 0,0 l/m 0,0 km/h (0 Bft) N 7,1 C 8,4 C 0,0 km/h (0 Bft)
06.06.2013 01:00 8,6 C 90 % 1021,4 hPa 0,0 l/m 0,5 km/h (0 Bft) N-NO 7,1 C 8,6 C 1,2 km/h (1 Bft)
06.06.2013 02:00 8,5 C 88 % 1021,4 hPa 0,0 l/m 0,2 km/h (0 Bft) N 6,5 C 8,5 C 0,7 km/h (0 Bft)
06.06.2013 03:00 7,0 C 91 % 1021,3 hPa 0,0 l/m 0,0 km/h (0 Bft) N 5,6 C 7,0 C 0,0 km/h (0 Bft)
06.06.2013 04:00 5,8 C 93 % 1021,5 hPa 0,0 l/m 0,0 km/h (0 Bft) N 4,8 C 5,8 C 0,0 km/h (0 Bft)
06.06.2013 05:00 5,9 C 95 % 1021,8 hPa 0,0 l/m 0,0 km/h (0 Bft) N 5,1 C 5,9 C 0,0 km/h (0 Bft)
06.06.2013 06:00 8,8 C 92 % 1022,2 hPa 0,0 l/m 0,0 km/h (0 Bft) N 7,6 C 8,8 C 0,0 km/h (0 Bft)
06.06.2013 07:00 13,5 C 75 % 1022,4 hPa 0,0 l/m 1,8 km/h (1 Bft) O 9,1 C 13,5 C 3,7 km/h (1 Bft)
06.06.2013 08:00 16,2 C 62 % 1022,4 hPa 0,0 l/m 2,3 km/h (1 Bft) O 8,9 C 16,2 C 5,2 km/h (1 Bft)
06.06.2013 09:00 18,3 C 55 % 1022,4 hPa 0,0 l/m 2,1 km/h (1 Bft) O 9,1 C 18,3 C 4,9 km/h (1 Bft)
06.06.2013 10:00 19,8 C 52 % 1022,5 hPa 0,0 l/m 2,9 km/h (1 Bft) O 9,7 C 19,8 C 7,4 km/h (2 Bft)
06.06.2013 11:00 20,4 C 51 % 1022,5 hPa 0,0 l/m 6,3 km/h (2 Bft) N-NO 10,0 C 20,2 C 13,0 km/h (3 Bft)
06.06.2013 12:00 20,9 C 41 % 1022,4 hPa 0,0 l/m 5,6 km/h (2 Bft) O-NO 7,2 C 20,9 C 11,9 km/h (2 Bft)
06.06.2013 13:00 21,4 C 43 % 1022,2 hPa 0,0 l/m 5,4 km/h (2 Bft) O-SO 8,3 C 21,3 C 11,7 km/h (2 Bft)
06.06.2013 14:00 22,0 C 37 % 1022,0 hPa 0,0 l/m 5,8 km/h (2 Bft) N-NO 6,8 C 21,9 C 11,4 km/h (2 Bft)
06.06.2013 15:00 22,4 C 38 % 1021,6 hPa 0,0 l/m 6,7 km/h (2 Bft) NO 7,5 C 22,1 C 13,3 km/h (3 Bft)
06.06.2013 16:00 22,8 C 39 % 1021,3 hPa 0,0 l/m 5,7 km/h (2 Bft) N-NO 8,0 C 22,8 C 11,0 km/h (2 Bft)
06.06.2013 17:00 23,0 C 37 % 1021,1 hPa 0,0 l/m 4,4 km/h (1 Bft) NO 7,4 C 23,0 C 9,9 km/h (2 Bft)
06.06.2013 18:00 22,5 C 40 % 1020,7 hPa 0,0 l/m 5,1 km/h (1 Bft) N-NO 8,1 C 22,5 C 9,5 km/h (2 Bft)
06.06.2013 19:00 22,4 C 41 % 1020,7 hPa 0,0 l/m 2,8 km/h (1 Bft) O 8,5 C 22,4 C 6,4 km/h (2 Bft)
06.06.2013 20:00 21,1 C 47 % 1020,8 hPa 0,0 l/m 0,4 km/h (0 Bft) O 9,4 C 21,1 C 1,7 km/h (1 Bft)
06.06.2013 21:00 16,2 C 72 % 1020,9 hPa 0,0 l/m 0,0 km/h (0 Bft) N 11,2 C 16,2 C 0,0 km/h (0 Bft)
06.06.2013 22:00 13,0 C 82 % 1021,3 hPa 0,0 l/m 0,0 km/h (0 Bft) N 10,0 C 13,0 C 0,0 km/h (0 Bft)
06.06.2013 23:00 11,5 C 85 % 1021,6 hPa 0,0 l/m 0,0 km/h (0 Bft) N 9,1 C 11,5 C 0,0 km/h (0 Bft)
07.06.2013 00:00 11,0 C 88 % 1021,8 hPa 0,0 l/m 0,0 km/h (0 Bft) N 9,1 C 11,0 C 0,0 km/h (0 Bft)
07.06.2013 01:00 10,9 C 88 % 1022,2 hPa 0,0 l/m 0,0 km/h (0 Bft) N 9,1 C 10,9 C 0,0 km/h (0 Bft)
07.06.2013 02:00 9,4 C 91 % 1022,1 hPa 0,0 l/m 0,0 km/h (0 Bft) N 8,1 C 9,4 C 0,0 km/h (0 Bft)
07.06.2013 03:00 8,4 C 93 % 1022,0 hPa 0,0 l/m 0,0 km/h (0 Bft) N 7,3 C 8,4 C 0,0 km/h (0 Bft)
07.06.2013 04:00 7,7 C 94 % 1021,8 hPa 0,0 l/m 0,0 km/h (0 Bft) N 6,8 C 7,7 C 0,0 km/h (0 Bft)
07.06.2013 05:00 8,2 C 96 % 1021,6 hPa 0,0 l/m 0,0 km/h (0 Bft) N 7,5 C 8,2 C 0,0 km/h (0 Bft)
07.06.2013 06:00 10,8 C 94 % 1021,7 hPa 0,0 l/m 0,0 km/h (0 Bft) N-NO 9,8 C 10,8 C 0,0 km/h (0 Bft)
07.06.2013 07:00 14,0 C 85 % 1021,7 hPa 0,0 l/m 3,3 km/h (1 Bft) NO 11,6 C 14,0 C 6,4 km/h (2 Bft)
07.06.2013 08:00 16,6 C 76 % 1021,8 hPa 0,0 l/m 3,0 km/h (1 Bft) O-NO 12,3 C 16,6 C 6,3 km/h (2 Bft)
07.06.2013 09:00 18,8 C 70 % 1021,8 hPa 0,0 l/m 3,5 km/h (1 Bft) NO 13,2 C 18,8 C 7,3 km/h (2 Bft)
07.06.2013 10:00 20,2 C 70 % 1021,8 hPa 0,0 l/m 5,0 km/h (1 Bft) N-NO 14,5 C 20,2 C 9,4 km/h (2 Bft)
07.06.2013 11:00 21,4 C 63 % 1021,7 hPa 0,0 l/m 5,4 km/h (1 Bft) O-NO 13,9 C 21,4 C 10,5 km/h (2 Bft)
07.06.2013 12:00 22,3 C 52 % 1021,7 hPa 0,0 l/m 7,1 km/h (2 Bft) N 11,9 C 22,0 C 10,5 km/h (2 Bft)
07.06.2013 13:00 22,9 C 45 % 1021,6 hPa 0,0 l/m 5,1 km/h (1 Bft) NO 10,3 C 22,9 C 10,7 km/h (2 Bft)
07.06.2013 14:00 23,6 C 41 % 1021,2 hPa 0,0 l/m 4,2 km/h (1 Bft) NO 9,6 C 23,6 C 9,4 km/h (2 Bft)
07.06.2013 15:00 24,1 C 37 % 1020,7 hPa 0,0 l/m 2,9 km/h (1 Bft) O 8,5 C 24,1 C 7,8 km/h (2 Bft)
07.06.2013 16:00 24,5 C 40 % 1020,3 hPa 0,0 l/m 3,1 km/h (1 Bft) O 9,9 C 24,5 C 6,7 km/h (2 Bft)
07.06.2013 17:00 24,7 C 41 % 1019,9 hPa 0,0 l/m 2,7 km/h (1 Bft) NO 10,5 C 24,7 C 6,3 km/h (2 Bft)
07.06.2013 18:00 24,2 C 45 % 1019,6 hPa 0,0 l/m 3,4 km/h (1 Bft) NO 11,5 C 24,2 C 6,8 km/h (2 Bft)
07.06.2013 19:00 23,4 C 48 % 1019,3 hPa 0,0 l/m 2,7 km/h (1 Bft) O-NO 11,8 C 23,4 C 6,1 km/h (2 Bft)
07.06.2013 20:00 22,4 C 50 % 1019,1 hPa 0,0 l/m 0,6 km/h (0 Bft) O-NO 11,5 C 22,4 C 1,7 km/h (1 Bft)
07.06.2013 21:00 18,0 C 70 % 1019,2 hPa 0,0 l/m 0,0 km/h (0 Bft) N 12,2 C 18,0 C 0,0 km/h (0 Bft)
07.06.2013 22:00 13,8 C 85 % 1019,5 hPa 0,0 l/m 0,3 km/h (0 Bft) N-NO 11,3 C 13,8 C 0,7 km/h (0 Bft)
07.06.2013 23:00 13,1 C 86 % 1019,7 hPa 0,0 l/m 0,0 km/h (0 Bft) N 10,7 C 13,1 C 0,0 km/h (0 Bft)
08.06.2013 00:00 12,4 C 87 % 1019,8 hPa 0,0 l/m 0,0 km/h (0 Bft) N 10,2 C 12,4 C 0,0 km/h (0 Bft)
08.06.2013 01:00 11,6 C 89 % 1019,9 hPa 0,0 l/m 0,0 km/h (0 Bft) N 9,8 C 11,6 C 0,0 km/h (0 Bft)
08.06.2013 02:00 11,5 C 90 % 1019,8 hPa 0,0 l/m 0,0 km/h (0 Bft) N 9,9 C 11,5 C 0,0 km/h (0 Bft)
08.06.2013 03:00 12,2 C 88 % 1019,5 hPa 0,0 l/m 0,0 km/h (0 Bft) N 10,4 C 12,2 C 0,0 km/h (0 Bft)
08.06.2013 04:00 11,5 C 89 % 1019,1 hPa 0,0 l/m 1,2 km/h (1 Bft) N-NW 9,7 C 11,5 C 2,8 km/h (1 Bft)
08.06.2013 05:00 11,1 C 88 % 1018,9 hPa 0,0 l/m 0,7 km/h (0 Bft) N-NO 9,3 C 11,1 C 1,3 km/h (1 Bft)
08.06.2013 06:00 12,7 C 86 % 1018,8 hPa 0,0 l/m 1,2 km/h (1 Bft) N-NO 10,4 C 12,7 C 2,7 km/h (1 Bft)
08.06.2013 07:00 15,4 C 78 % 1018,8 hPa 0,0 l/m 3,5 km/h (1 Bft) N-NO 11,6 C 15,4 C 6,4 km/h (2 Bft)
08.06.2013 08:00 17,6 C 70 % 1018,7 hPa 0,0 l/m 4,0 km/h (1 Bft) N-NO 12,1 C 17,6 C 8,2 km/h (2 Bft)
08.06.2013 09:00 19,2 C 66 % 1018,6 hPa 0,0 l/m 4,3 km/h (1 Bft) NO 12,7 C 19,2 C 8,0 km/h (2 Bft)
08.06.2013 10:00 20,7 C 62 % 1018,4 hPa 0,0 l/m 3,0 km/h (1 Bft) N-NO 13,2 C 20,7 C 8,2 km/h (2 Bft)
08.06.2013 11:00 22,1 C 52 % 1018,0 hPa 0,0 l/m 3,2 km/h (1 Bft) NO 11,7 C 22,1 C 6,5 km/h (2 Bft)
08.06.2013 12:00 23,0 C 46 % 1017,6 hPa 0,0 l/m 3,7 km/h (1 Bft) O 10,6 C 23,0 C 8,3 km/h (2 Bft)
08.06.2013 13:00 23,8 C 47 % 1017,0 hPa 0,0 l/m 3,4 km/h (1 Bft) O-NO 11,6 C 23,8 C 7,6 km/h (2 Bft)
08.06.2013 14:00 23,6 C 49 % 1016,4 hPa 0,0 l/m 4,3 km/h (1 Bft) NO 12,3 C 23,6 C 9,1 km/h (2 Bft)
08.06.2013 15:00 23,2 C 51 % 1015,8 hPa 0,0 l/m 5,7 km/h (2 Bft) O-NO 12,4 C 23,1 C 11,0 km/h (2 Bft)
08.06.2013 16:00 23,6 C 52 % 1015,3 hPa 0,0 l/m 6,2 km/h (2 Bft) NO 13,2 C 23,4 C 12,1 km/h (2 Bft)
08.06.2013 17:00 23,1 C 54 % 1014,8 hPa 0,0 l/m 7,7 km/h (2 Bft) N-NO 13,3 C 22,6 C 13,6 km/h (3 Bft)
08.06.2013 18:00 22,5 C 54 % 1014,4 hPa 0,0 l/m 6,7 km/h (2 Bft) NO 12,6 C 22,2 C 12,1 km/h (2 Bft)
08.06.2013 19:00 21,9 C 55 % 1014,3 hPa 0,0 l/m 4,9 km/h (1 Bft) N-NO 12,5 C 21,9 C 9,3 km/h (2 Bft)
08.06.2013 20:00 20,1 C 60 % 1014,3 hPa 0,0 l/m 3,5 km/h (1 Bft) N-NO 12,1 C 20,1 C 6,8 km/h (2 Bft)
08.06.2013 21:00 16,3 C 75 % 1014,3 hPa 0,0 l/m 0,9 km/h (0 Bft) N-NO 11,9 C 16,3 C 2,0 km/h (1 Bft)
08.06.2013 22:00 13,9 C 81 % 1014,5 hPa 0,0 l/m 2,5 km/h (1 Bft) N-NO 10,7 C 13,9 C 4,1 km/h (1 Bft)
08.06.2013 23:00 13,1 C 83 % 1014,4 hPa 0,0 l/m 3,8 km/h (1 Bft) N-NW 10,2 C 13,1 C 6,7 km/h (2 Bft)
09.06.2013 00:00 12,6 C 84 % 1014,4 hPa 0,0 l/m 3,2 km/h (1 Bft) N 10,0 C 12,6 C 7,4 km/h (2 Bft)
09.06.2013 01:00 11,4 C 89 % 1014,3 hPa 0,0 l/m 3,4 km/h (1 Bft) N-NO 9,6 C 11,4 C 6,3 km/h (2 Bft)
09.06.2013 02:00 11,2 C 90 % 1014,2 hPa 0,0 l/m 3,2 km/h (1 Bft) N-NO 9,7 C 11,2 C 6,3 km/h (2 Bft)
09.06.2013 03:00 10,3 C 92 % 1014,1 hPa 0,0 l/m 1,3 km/h (1 Bft) N 9,1 C 10,3 C 2,8 km/h (1 Bft)
09.06.2013 04:00 10,3 C 93 % 1013,7 hPa 0,0 l/m 4,4 km/h (1 Bft) N-NO 9,2 C 10,3 C 7,8 km/h (2 Bft)
09.06.2013 05:00 9,9 C 93 % 1013,5 hPa 0,0 l/m 2,8 km/h (1 Bft) N-NO 8,8 C 9,9 C 6,3 km/h (2 Bft)
09.06.2013 06:00 10,5 C 92 % 1013,6 hPa 0,0 l/m 3,3 km/h (1 Bft) N 9,3 C 10,5 C 6,3 km/h (2 Bft)
09.06.2013 07:00 11,9 C 89 % 1013,5 hPa 0,0 l/m 5,7 km/h (2 Bft) NO 10,1 C 11,7 C 10,5 km/h (2 Bft)
09.06.2013 08:00 13,1 C 86 % 1013,3 hPa 0,0 l/m 7,3 km/h (2 Bft) N-NO 10,8 C 12,5 C 13,0 km/h (3 Bft)
09.06.2013 09:00 13,4 C 86 % 1013,3 hPa 0,0 l/m 7,9 km/h (2 Bft) N-NO 11,1 C 12,5 C 14,1 km/h (3 Bft)
09.06.2013 10:00 13,9 C 84 % 1013,3 hPa 0,0 l/m 6,1 km/h (2 Bft) N-NO 11,3 C 13,7 C 12,7 km/h (3 Bft)
09.06.2013 11:00 14,6 C 83 % 1013,1 hPa 0,0 l/m 7,1 km/h (2 Bft) N-NO 11,8 C 14,1 C 12,8 km/h (3 Bft)
09.06.2013 12:00 16,3 C 80 % 1012,4 hPa 0,0 l/m 7,3 km/h (2 Bft) N-NW 12,8 C 15,8 C 13,8 km/h (3 Bft)
09.06.2013 13:00 17,5 C 76 % 1011,8 hPa 0,0 l/m 6,9 km/h (2 Bft) N-NO 13,2 C 17,1 C 12,9 km/h (3 Bft)
09.06.2013 14:00 18,4 C 74 % 1011,2 hPa 0,0 l/m 7,0 km/h (2 Bft) O-NO 13,7 C 18,1 C 13,7 km/h (3 Bft)
09.06.2013 15:00 17,7 C 75 % 1010,9 hPa 0,0 l/m 7,5 km/h (2 Bft) N-NO 13,2 C 17,1 C 12,9 km/h (3 Bft)
09.06.2013 16:00 18,0 C 73 % 1010,7 hPa 0,0 l/m 8,4 km/h (2 Bft) N-NW 13,1 C 17,1 C 14,5 km/h (3 Bft)
09.06.2013 17:00 17,9 C 69 % 1010,1 hPa 0,0 l/m 7,3 km/h (2 Bft) N-NO 12,1 C 17,4 C 13,3 km/h (3 Bft)
09.06.2013 18:00 16,9 C 69 % 1009,6 hPa 0,0 l/m 5,2 km/h (1 Bft) N 11,2 C 16,9 C 9,7 km/h (2 Bft)
09.06.2013 19:00 16,0 C 76 % 1009,4 hPa 0,0 l/m 0,7 km/h (0 Bft) N-NO 11,8 C 16,0 C 1,5 km/h (1 Bft)
09.06.2013 20:00 15,6 C 77 % 1009,3 hPa 0,0 l/m 0,2 km/h (0 Bft) N-NW 11,5 C 15,6 C 0,6 km/h (0 Bft)
09.06.2013 21:00 15,3 C 79 % 1009,4 hPa 0,0 l/m 0,0 km/h (0 Bft) N 11,7 C 15,3 C 0,0 km/h (0 Bft)
09.06.2013 22:00 14,5 C 83 % 1009,8 hPa 0,0 l/m 0,0 km/h (0 Bft) N 11,7 C 14,5 C 0,0 km/h (0 Bft)
09.06.2013 23:00 14,1 C 83 % 1010,0 hPa 0,0 l/m 1,7 km/h (1 Bft) N-NO 11,2 C 14,1 C 3,3 km/h (1 Bft)
Min-Datum _ 06.06.13 06.06.13 09.06.13 - 04.06.13 - 06.06.13 06.06.13 04.06.13
_ Min-Zeit 05:05 17:45 20:30 - 00:55 - 05:05 05:05 00:55
Minimum _ 5,3 C 31 % 1009,2 hPa - 0,0 km/h (0 Bft) - 4,4 C 5,3 C 0,0 km/h (0 Bft)
Max-Datum _ 07.06.13 05.06.13 03.06.13 03.06.13 03.06.13 - 07.06.13 07.06.13 03.06.13
_ Max-Zeit 17:15 04:05 09:00 00:00 17:10 - 10:40 17:15 15:55
Maximum _ 25,3 C 96 % 1024,7 hPa 0,0 l/m 15,7 km/h
N (3 Bft)
- 15,6 C 25,3 C 30,6 km/h
N (5 Bft)
Durchschnitt _ 15,3 C 72 % 1019,6 hPa #0,0 l/m 3,8 km/h (1 Bft) N-NO 9,6 C 15,1 C 7,5 km/h (2 Bft)